Time;durP1;ratioP1;P1;durP2;ratioP2;P2;SDS_P1;SDS_P2;PMS_P1;PMS_P2;Temp;Humidity;BMP_temperature;BMP_pressure;BME280_temperature;BME280_humidity;BME280_pressure;Samples;Min_cycle;Max_cycle;Signal;HPM_P1;HPM_P2
2021/05/15 00:00:44;;;;;;;3.78;2.63;;;;;;;13.52;71.38;96662.25;4909076;29;20032;-68
2021/05/15 00:03:09;;;;;;;3.47;2.70;;;;;;;12.85;73.01;96589.09;4907584;29;20479;-68
2021/05/15 00:05:35;;;;;;;5.55;2.70;;;;;;;13.27;73.99;96671.78;4908290;29;20164;-67
2021/05/15 00:08:03;;;;;;;5.47;2.78;;;;;;;13.27;73.32;96669.78;4908935;29;20036;-68
2021/05/15 00:10:30;;;;;;;3.28;2.70;;;;;;;12.74;72.28;96584.72;4908417;29;20040;-67
2021/05/15 00:12:55;;;;;;;7.75;2.33;;;;;;;13.31;69.67;96665.00;4907326;29;20083;-67
2021/05/15 00:15:21;;;;;;;2.58;1.95;;;;;;;13.27;69.07;96664.25;4908784;29;20590;-68
2021/05/15 00:17:46;;;;;;;4.38;2.10;;;;;;;13.22;69.15;96661.84;4907224;29;20040;-67
2021/05/15 00:20:15;;;;;;;4.07;2.17;;;;;;;13.07;69.87;96657.44;4908270;29;20055;-67
2021/05/15 00:22:44;;;;;;;2.42;1.98;;;;;;;12.82;71.32;96659.38;4908421;29;20060;-67
2021/05/15 00:25:12;;;;;;;4.80;1.70;;;;;;;12.67;72.46;96657.75;4908069;29;20145;-67
2021/05/15 00:27:38;;;;;;;3.40;1.88;;;;;;;9.09;72.40;96096.22;4908434;29;20040;-67
2021/05/15 00:30:09;;;;;;;3.85;1.60;;;;;;;12.66;72.72;96658.94;4908209;29;20039;-66
2021/05/15 00:32:34;;;;;;;3.90;2.10;;;;;;;12.60;73.38;96652.16;4907116;29;20603;-66
2021/05/15 00:35:00;;;;;;;4.00;1.85;;;;;;;12.36;74.14;96652.88;4901219;29;20155;-66
2021/05/15 00:37:26;;;;;;;2.40;1.92;;;;;;;11.85;75.16;96585.66;4907866;29;20040;-68
2021/05/15 00:39:52;;;;;;;6.30;2.10;;;;;;;12.24;74.24;96622.69;4908512;29;20111;-68
2021/05/15 00:42:17;;;;;;;5.10;2.15;;;;;;;12.43;74.74;96658.47;4907883;29;20140;-68
2021/05/15 00:44:44;;;;;;;3.33;1.92;;;;;;;12.56;73.96;96675.56;4906704;29;20444;-68
2021/05/15 00:47:15;;;;;;;3.38;2.10;;;;;;;12.17;73.80;96617.91;4907813;29;20036;-67
2021/05/15 00:49:42;;;;;;;3.08;1.92;;;;;;;12.41;74.42;96660.84;4908341;29;20042;-68
2021/05/15 00:52:08;;;;;;;3.00;1.92;;;;;;;12.43;74.42;96664.03;4906052;29;20508;-68
2021/05/15 00:54:40;;;;;;;4.97;2.10;;;;;;;11.49;74.78;96536.69;4907766;29;20073;-68
2021/05/15 00:57:08;;;;;;;2.45;1.85;;;;;;;12.23;74.88;96660.75;4907253;29;20044;-68
2021/05/15 00:59:35;;;;;;;3.58;1.90;;;;;;;12.25;74.66;96660.38;4908066;29;20039;-68
2021/05/15 01:02:01;;;;;;;1.80;1.70;;;;;;;12.25;74.92;96663.16;4907557;29;20107;-67
2021/05/15 01:04:27;;;;;;;2.10;1.85;;;;;;;12.20;75.07;96660.78;4907946;29;20111;-68
2021/05/15 01:06:52;;;;;;;3.28;2.00;;;;;;;11.60;74.38;96593.03;4905867;29;20191;-67
2021/05/15 01:09:18;;;;;;;4.60;1.88;;;;;;;11.95;75.16;96662.59;4906502;29;20121;-67
2021/05/15 01:11:44;;;;;;;2.00;1.55;;;;;;;11.96;75.07;96655.88;4907644;29;20103;-67
2021/05/15 01:14:10;;;;;;;3.28;1.80;;;;;;;11.76;76.45;96671.25;4908136;29;20523;-68
2021/05/15 01:16:36;;;;;;;1.90;1.70;;;;;;;11.78;76.46;96677.19;4907405;29;20044;-67
2021/05/15 01:19:03;;;;;;;2.72;1.80;;;;;;;11.77;76.29;96670.03;4906093;29;20036;-65
2021/05/15 01:21:28;;;;;;;2.42;1.80;;;;;;;11.63;76.56;96665.19;4906845;29;20048;-67
2021/05/15 01:23:54;;;;;;;2.15;1.83;;;;;;;11.57;76.97;96665.94;4907786;29;20043;-66
2021/05/15 01:26:22;;;;;;;3.10;2.20;;;;;;;11.56;77.58;96664.31;4907563;29;20579;-66
2021/05/15 01:28:54;;;;;;;9.07;2.38;;;;;;;11.66;77.22;96672.75;4907998;29;20036;-67
2021/05/15 01:31:21;;;;;;;3.47;2.42;;;;;;;11.60;77.09;96670.69;4905918;29;20103;-67
2021/05/15 01:33:47;;;;;;;4.75;2.33;;;;;;;11.60;77.22;96671.47;4905785;29;20046;-67
2021/05/15 01:36:12;;;;;;;2.88;1.80;;;;;;;11.02;76.68;96606.09;4907600;29;20106;-67
2021/05/15 01:38:38;;;;;;;2.53;1.73;;;;;;;11.01;76.65;96604.47;4908284;29;20492;-68
2021/05/15 01:41:06;;;;;;;3.97;2.10;;;;;;;11.05;77.36;96605.31;4911369;29;20035;-67
2021/05/15 01:43:32;;;;;;;2.78;1.95;;;;;;;11.29;77.88;96663.72;4911673;29;20044;-67
2021/05/15 01:45:57;;;;;;;6.68;2.03;;;;;;;11.24;77.79;96646.66;4909508;29;20132;-67
2021/05/15 01:48:23;;;;;;;2.20;1.70;;;;;;;11.41;77.13;96660.63;4910301;29;20036;-67
2021/05/15 01:50:58;;;;;;;3.67;1.95;;;;;;;11.33;77.70;96666.53;4911286;29;20096;-66
2021/05/15 01:53:29;;;;;;;3.42;1.75;;;;;;;11.34;77.93;96668.91;4911484;29;20047;-67
2021/05/15 01:55:56;;;;;;;1.98;1.67;;;;;;;11.32;77.83;96664.91;4910919;29;20188;-67
2021/05/15 01:58:22;;;;;;;2.03;1.83;;;;;;;11.03;77.54;96629.84;4911533;29;20044;-68
2021/05/15 02:00:48;;;;;;;4.03;1.90;;;;;;;11.33;76.81;96658.22;4910674;29;20043;-67
2021/05/15 02:03:13;;;;;;;4.03;2.08;;;;;;;10.17;77.03;96461.34;4911192;29;20123;-68
2021/05/15 02:05:39;;;;;;;3.53;1.83;;;;;;;11.24;77.53;96663.28;4909176;29;20035;-67
2021/05/15 02:08:04;;;;;;;2.75;1.80;;;;;;;11.22;77.74;96660.09;4911741;29;20036;-68
2021/05/15 02:10:30;;;;;;;2.65;1.80;;;;;;;10.97;77.80;96621.06;4910611;29;20036;-67
2021/05/15 02:12:56;;;;;;;4.15;1.75;;;;;;;10.96;77.88;96619.50;4911002;29;20036;-67
2021/05/15 02:15:22;;;;;;;4.53;1.90;;;;;;;11.19;77.96;96660.88;4910474;29;20039;-67
2021/05/15 02:17:47;;;;;;;5.25;1.95;;;;;;;11.12;78.29;96656.06;4910474;29;20043;-67
2021/05/15 02:20:13;;;;;;;3.55;1.80;;;;;;;10.91;77.99;96605.22;4910566;29;20062;-67
2021/05/15 02:22:39;;;;;;;2.88;2.28;;;;;;;10.77;78.11;96602.28;4910380;29;20591;-67
2021/05/15 02:25:05;;;;;;;2.75;2.08;;;;;;;10.63;78.78;96595.47;4910689;29;20083;-66
2021/05/15 02:27:31;;;;;;;3.88;2.40;;;;;;;10.52;79.59;96594.56;4910993;29;20047;-66
2021/05/15 02:29:56;;;;;;;3.20;2.10;;;;;;;10.50;80.49;96583.06;4909728;29;20032;-67
2021/05/15 02:32:22;;;;;;;3.13;2.00;;;;;;;10.89;80.27;96652.66;4910672;29;20052;-67
2021/05/15 02:34:47;;;;;;;2.13;1.63;;;;;;;10.73;80.34;96650.16;4910838;29;20035;-67
2021/05/15 02:37:13;;;;;;;2.38;1.63;;;;;;;10.73;80.44;96655.69;4910230;29;20067;-67
2021/05/15 02:39:38;;;;;;;2.13;1.70;;;;;;;10.55;81.24;96660.25;4910269;29;20032;-67
2021/05/15 02:42:04;;;;;;;4.57;1.88;;;;;;;10.44;80.80;96615.06;4909839;29;20127;-67
2021/05/15 02:44:30;;;;;;;2.92;2.15;;;;;;;10.60;81.21;96646.09;4909077;29;20463;-67
2021/05/15 02:46:55;;;;;;;3.97;2.38;;;;;;;10.68;80.89;96642.19;4909908;29;20051;-67
2021/05/15 02:49:21;;;;;;;5.28;1.90;;;;;;;10.65;80.99;96642.16;4909157;29;20507;-68
2021/05/15 02:51:46;;;;;;;3.10;1.65;;;;;;;10.73;80.56;96643.03;4909843;29;20043;-67
2021/05/15 02:54:12;;;;;;;4.47;2.20;;;;;;;10.66;80.83;96652.06;4910040;29;20047;-68
2021/05/15 02:56:37;;;;;;;4.43;1.98;;;;;;;10.68;80.71;96646.94;4909567;29;20531;-68
2021/05/15 02:59:03;;;;;;;1.60;1.50;;;;;;;10.13;81.13;96593.34;4908216;29;20044;-67
2021/05/15 03:01:28;;;;;;;3.53;1.70;;;;;;;10.39;82.07;96645.84;4909653;29;20036;-68
2021/05/15 03:03:54;;;;;;;2.65;1.73;;;;;;;10.48;81.94;96643.56;4909845;29;20111;-67
2021/05/15 03:06:20;;;;;;;7.93;2.17;;;;;;;10.22;82.03;96599.41;4908097;29;20131;-68
2021/05/15 03:08:45;;;;;;;5.95;1.98;;;;;;;9.83;82.15;96544.75;4910071;29;20191;-67
2021/05/15 03:11:11;;;;;;;8.23;2.13;;;;;;;7.38;81.50;96140.84;4909419;29;20301;-67
2021/05/15 03:13:36;;;;;;;2.33;1.80;;;;;;;10.52;81.89;96638.88;4909812;29;20551;-68
2021/05/15 03:16:02;;;;;;;5.82;2.25;;;;;;;10.62;81.51;96646.47;4909173;29;20591;-68
2021/05/15 03:18:28;;;;;;;3.28;1.60;;;;;;;9.86;80.93;96519.09;4909057;29;20063;-68
2021/05/15 03:20:53;;;;;;;3.30;2.15;;;;;;;10.73;80.76;96637.50;4909374;29;20044;-68
2021/05/15 03:23:19;;;;;;;5.28;2.00;;;;;;;10.33;80.81;96593.97;4909421;29;20060;-68
2021/05/15 03:25:44;;;;;;;11.48;2.30;;;;;;;10.76;80.70;96647.81;4909249;29;20048;-68
2021/05/15 03:28:09;;;;;;;7.68;1.90;;;;;;;10.03;80.25;96516.53;4910167;29;20525;-68
2021/05/15 03:30:35;;;;;;;5.50;2.00;;;;;;;10.88;80.04;96644.75;4907757;29;20059;-67
2021/05/15 03:33:00;;;;;;;3.75;1.60;;;;;;;10.88;80.03;96647.50;4909986;29;20028;-67
2021/05/15 03:35:27;;;;;;;5.80;1.80;;;;;;;10.61;79.34;96624.69;4909196;29;20099;-67
2021/05/15 03:37:53;;;;;;;2.60;1.80;;;;;;;10.80;79.88;96649.44;4909774;29;20414;-66
2021/05/15 03:40:19;;;;;;;6.10;2.15;;;;;;;10.72;80.90;96652.53;4909151;29;20036;-67
2021/05/15 03:42:47;;;;;;;4.25;1.95;;;;;;;10.75;81.72;96649.00;4909371;29;20028;-67
2021/05/15 03:45:13;;;;;;;3.25;1.90;;;;;;;10.88;80.04;96651.09;4909033;29;20427;-67
2021/05/15 03:47:39;;;;;;;4.25;2.60;;;;;;;11.08;79.27;96660.00;4909627;29;20042;-67
2021/05/15 03:50:06;;;;;;;7.95;5.18;;;;;;;9.83;78.82;96443.19;4909053;29;20048;-68
2021/05/15 03:52:31;;;;;;;5.65;4.00;;;;;;;11.02;80.87;96631.81;4886112;29;20379;-67
2021/05/15 03:54:56;;;;;;;5.65;3.78;;;;;;;10.70;82.79;96606.59;4922748;29;20036;-67
2021/05/15 03:57:22;;;;;;;6.68;3.20;;;;;;;10.93;84.57;96658.25;4908476;29;20035;-67
2021/05/15 03:59:47;;;;;;;7.28;3.63;;;;;;;11.10;84.52;96657.59;4908965;29;20032;-68
2021/05/15 04:02:13;;;;;;;6.47;3.22;;;;;;;10.83;83.67;96584.94;4906442;29;20051;-69
2021/05/15 04:04:38;;;;;;;3.88;3.15;;;;;;;11.25;83.62;96665.69;4909447;29;20115;-67
2021/05/15 04:07:04;;;;;;;7.53;3.50;;;;;;;11.45;82.67;96647.63;4906780;29;20028;-67
2021/05/15 04:09:30;;;;;;;4.45;3.53;;;;;;;11.75;81.57;96661.31;4907104;29;20050;-68
2021/05/15 04:11:56;;;;;;;7.93;3.45;;;;;;;11.77;80.92;96636.75;4906670;29;20036;-67
2021/05/15 04:14:29;;;;;;;10.13;4.25;;;;;;;11.65;79.27;96578.81;4908427;29;20047;-66
2021/05/15 04:19:29;;;;;;;3.47;3.17;;;;;;;11.76;77.37;96563.03;4908445;29;20048;-68
2021/05/15 04:21:56;;;;;;;6.22;3.88;;;;;;;12.78;76.22;96652.22;4908019;29;20043;-67
2021/05/15 04:24:24;;;;;;;7.13;3.42;;;;;;;12.83;75.79;96641.53;4908949;29;20047;-68
2021/05/15 04:26:54;;;;;;;5.63;3.53;;;;;;;13.15;74.44;96652.72;4907793;29;20043;-68
2021/05/15 04:29:21;;;;;;;3.85;3.45;;;;;;;13.35;73.98;96659.47;4908237;29;20059;-68
2021/05/15 04:31:48;;;;;;;4.18;3.20;;;;;;;13.43;72.72;96634.03;4906221;29;20669;-69
2021/05/15 04:34:13;;;;;;;3.08;2.83;;;;;;;13.51;72.48;96654.28;4908519;29;20036;-68
2021/05/15 04:36:39;;;;;;;11.48;4.25;;;;;;;13.46;72.31;96655.50;4906613;29;20503;-69
2021/05/15 04:39:05;;;;;;;9.98;5.07;;;;;;;13.59;71.82;96650.31;4908391;29;20504;-69
2021/05/15 04:41:31;;;;;;;9.13;5.43;;;;;;;13.68;71.16;96651.50;4907589;29;20039;-69
2021/05/15 04:43:56;;;;;;;8.57;5.03;;;;;;;13.68;71.53;96657.06;4908268;29;20044;-69
2021/05/15 04:46:21;;;;;;;10.18;5.60;;;;;;;12.97;71.77;96560.91;4906343;29;20045;-69
2021/05/15 04:48:47;;;;;;;8.52;5.22;;;;;;;13.62;71.54;96664.19;4907961;29;20043;-69
2021/05/15 04:51:12;;;;;;;6.85;4.90;;;;;;;13.84;71.17;96653.84;4907679;29;20032;-69
2021/05/15 04:53:38;;;;;;;6.28;3.85;;;;;;;12.55;70.08;96421.97;4907739;29;20039;-70
2021/05/15 04:56:05;;;;;;;9.43;4.32;;;;;;;11.58;69.68;96251.44;4908803;29;20491;-63
2021/05/15 04:58:31;;;;;;;5.72;3.70;;;;;;;13.66;69.38;96548.09;4912375;29;20044;-62
2021/05/15 05:00:56;;;;;;;8.18;3.50;;;;;;;14.44;67.75;96643.34;4925169;29;20129;-63
2021/05/15 05:03:23;;;;;;;7.03;3.50;;;;;;;14.49;66.82;96628.97;4925607;29;20035;-64
2021/05/15 05:05:49;;;;;;;4.07;3.13;;;;;;;14.70;66.12;96628.84;4923191;29;20494;-63
2021/05/15 05:08:14;;;;;;;4.18;3.08;;;;;;;13.58;65.47;96432.44;4908183;29;20036;-63
2021/05/15 05:10:40;;;;;;;6.22;3.08;;;;;;;15.00;64.91;96633.88;4907619;29;20042;-62
2021/05/15 05:13:06;;;;;;;11.85;4.40;;;;;;;15.01;65.36;96627.88;4907640;29;20099;-65
2021/05/15 05:15:32;;;;;;;4.97;3.78;;;;;;;15.24;64.83;96634.88;4906390;29;20111;-63
2021/05/15 05:17:57;;;;;;;5.15;3.58;;;;;;;14.36;65.17;96501.66;4907583;29;20119;-63
2021/05/15 05:20:23;;;;;;;3.55;2.78;;;;;;;15.34;64.92;96600.50;4905587;29;20047;-65
2021/05/15 05:22:50;;;;;;;6.32;3.53;;;;;;;15.43;64.95;96615.59;4907658;29;20142;-62
2021/05/15 05:25:17;;;;;;;3.63;2.90;;;;;;;15.64;65.09;96629.38;4907844;29;20099;-63
2021/05/15 05:27:47;;;;;;;3.85;2.75;;;;;;;15.37;64.64;96555.81;4907592;29;20035;-63
2021/05/15 05:30:15;;;;;;;5.05;3.30;;;;;;;16.05;63.90;96613.38;4907342;29;20044;-63
2021/05/15 05:32:41;;;;;;;4.60;2.88;;;;;;;16.19;62.48;96596.44;4907728;29;20096;-61
2021/05/15 05:35:07;;;;;;;5.38;3.30;;;;;;;16.45;62.74;96615.31;4907345;29;20028;-61
2021/05/15 05:37:32;;;;;;;5.28;3.88;;;;;;;16.34;62.78;96614.63;4907450;29;20091;-62
2021/05/15 05:39:58;;;;;;;4.75;3.35;;;;;;;14.33;62.37;96299.09;4907448;29;20032;-63
2021/05/15 05:42:23;;;;;;;4.60;3.10;;;;;;;16.68;62.25;96617.41;4907033;29;20032;-62
2021/05/15 05:44:49;;;;;;;6.88;2.95;;;;;;;16.89;61.41;96613.53;4905801;29;20408;-63
2021/05/15 05:47:14;;;;;;;3.40;3.10;;;;;;;16.80;61.86;96638.44;4902415;29;20044;-61
2021/05/15 05:49:39;;;;;;;5.75;3.28;;;;;;;15.72;64.23;96516.41;4906247;29;20938;-59
2021/05/15 05:52:05;;;;;;;4.20;3.25;;;;;;;16.56;63.93;96613.19;4901983;29;20412;-59
2021/05/15 05:54:30;;;;;;;5.18;3.88;;;;;;;16.04;66.19;96620.19;4922592;29;20053;-60
2021/05/15 05:56:56;;;;;;;4.05;3.60;;;;;;;16.11;66.03;96611.72;4921825;28;20032;-64
2021/05/15 05:59:21;;;;;;;6.95;4.40;;;;;;;16.01;66.53;96611.84;4906354;29;20105;-60
2021/05/15 06:01:47;;;;;;;9.57;3.90;;;;;;;15.72;67.91;96582.63;4902754;29;20476;-60
2021/05/15 06:04:12;;;;;;;6.70;3.85;;;;;;;15.97;67.77;96609.06;4917287;29;20047;-58
2021/05/15 06:06:37;;;;;;;8.90;4.05;;;;;;;15.91;65.94;96588.41;4906708;29;20114;-60
2021/05/15 06:09:06;;;;;;;7.53;4.38;;;;;;;16.28;65.24;96599.53;4905565;29;20423;-58
2021/05/15 06:11:31;;;;;;;6.47;4.25;;;;;;;16.33;64.59;96557.13;4907102;29;20036;-58
2021/05/15 06:13:57;;;;;;;6.78;4.13;;;;;;;16.12;63.99;96526.66;4907194;29;20040;-60
2021/05/15 06:16:22;;;;;;;4.60;3.55;;;;;;;16.77;63.57;96597.31;4924139;29;20039;-60
2021/05/15 06:18:48;;;;;;;6.65;3.53;;;;;;;16.74;63.61;96603.75;4925917;29;20043;-64
2021/05/15 06:21:14;;;;;;;4.38;3.97;;;;;;;16.03;64.67;96515.22;4925495;29;20115;-67
2021/05/15 06:23:39;;;;;;;5.85;4.13;;;;;;;16.96;64.64;96585.44;4915390;29;20135;-61
2021/05/15 06:26:09;;;;;;;7.53;4.45;;;;;;;16.25;64.40;96438.25;4909860;29;20416;-66
2021/05/15 06:28:36;;;;;;;7.55;3.78;;;;;;;17.55;62.46;96592.88;4909047;29;20079;-63
2021/05/15 06:31:06;;;;;;;6.60;4.90;;;;;;;17.03;64.62;96593.72;4911078;29;20032;-64
2021/05/15 06:33:32;;;;;;;5.43;4.80;;;;;;;16.63;65.38;96575.16;4910448;29;20033;-63
2021/05/15 06:35:58;;;;;;;4.97;4.30;;;;;;;17.40;64.00;96596.34;4911648;29;20044;-60
2021/05/15 06:38:24;;;;;;;6.45;4.80;;;;;;;17.67;62.82;96583.84;4905076;29;20035;-64
2021/05/15 06:40:49;;;;;;;5.10;4.70;;;;;;;17.07;61.61;96437.75;4890759;29;20661;-64
2021/05/15 06:43:15;;;;;;;6.70;4.55;;;;;;;18.08;60.86;96538.66;4918836;29;20496;-59
2021/05/15 06:45:40;;;;;;;8.60;4.43;;;;;;;18.12;60.41;96578.59;4913173;29;20553;-63
2021/05/15 06:48:06;;;;;;;7.25;4.07;;;;;;;17.73;57.24;96464.50;4928922;29;20032;-64
2021/05/15 06:50:32;;;;;;;5.32;3.95;;;;;;;18.63;56.98;96577.16;4928508;29;20142;-62
2021/05/15 06:52:58;;;;;;;4.30;3.90;;;;;;;18.72;56.87;96574.56;4911114;29;20025;-63
2021/05/15 06:55:24;;;;;;;5.45;4.80;;;;;;;18.85;57.46;96567.84;4914353;29;20032;-64
2021/05/15 06:57:49;;;;;;;8.30;3.95;;;;;;;18.61;56.96;96515.09;4911130;29;20040;-61
2021/05/15 07:00:15;;;;;;;6.88;4.35;;;;;;;18.90;56.88;96536.47;4912052;29;20428;-66
2021/05/15 07:02:41;;;;;;;3.83;3.53;;;;;;;18.99;56.89;96533.03;4915758;29;20024;-60
2021/05/15 07:05:07;;;;;;;5.35;4.13;;;;;;;19.61;55.66;96554.38;4922469;29;20043;-59
2021/05/15 07:07:33;;;;;;;8.45;4.25;;;;;;;19.34;56.19;96558.25;4918641;29;20042;-61
2021/05/15 07:09:58;;;;;;;5.05;4.32;;;;;;;19.28;56.06;96551.56;4918983;29;20047;-60
2021/05/15 07:12:24;;;;;;;4.05;3.63;;;;;;;19.07;56.85;96552.09;4912655;29;20118;-62
2021/05/15 07:14:51;;;;;;;4.30;3.72;;;;;;;19.49;55.68;96551.03;4913759;29;20782;-60
2021/05/15 07:17:24;;;;;;;7.22;4.30;;;;;;;19.34;55.62;96499.28;4894359;29;20358;-57
2021/05/15 07:19:50;;;;;;;3.90;3.60;;;;;;;19.58;53.83;96546.81;4928961;29;20052;-60
2021/05/15 07:22:15;;;;;;;5.13;4.10;;;;;;;19.33;56.59;96541.84;4918913;29;20084;-62
2021/05/15 07:24:41;;;;;;;3.95;3.65;;;;;;;19.64;54.22;96540.22;4923535;29;20032;-60
2021/05/15 07:27:06;;;;;;;5.05;3.63;;;;;;;19.66;54.30;96536.97;4900004;29;20555;-61
2021/05/15 07:29:32;;;;;;;5.78;3.75;;;;;;;19.35;55.74;96540.16;4893802;29;20039;-60
2021/05/15 07:31:57;;;;;;;5.47;4.28;;;;;;;19.15;55.18;96536.66;4907305;29;20047;-63
2021/05/15 07:34:22;;;;;;;4.80;3.63;;;;;;;18.88;55.64;96465.94;4907109;29;20055;-61
2021/05/15 07:36:48;;;;;;;7.32;4.30;;;;;;;19.11;55.14;96457.31;4890349;29;20036;-62
2021/05/15 07:39:13;;;;;;;4.47;4.00;;;;;;;19.47;53.26;96480.44;4889620;29;20044;-61
2021/05/15 07:41:39;;;;;;;5.97;3.60;;;;;;;19.60;53.48;96505.03;4915015;29;20125;-63
2021/05/15 07:44:05;;;;;;;4.93;3.83;;;;;;;19.26;54.63;96488.63;4916697;29;20096;-67
2021/05/15 07:46:30;;;;;;;6.05;3.70;;;;;;;19.75;52.84;96503.41;4906749;29;20039;-61
2021/05/15 07:48:55;;;;;;;7.30;3.67;;;;;;;19.26;53.38;96469.75;4906979;29;20044;-67
2021/05/15 07:51:22;;;;;;;6.10;3.78;;;;;;;19.77;52.54;96472.84;4905813;29;20115;-66
2021/05/15 07:53:53;;;;;;;4.43;3.90;;;;;;;20.35;53.04;96511.72;4897694;29;20068;-67
2021/05/15 07:56:18;;;;;;;5.32;3.92;;;;;;;20.65;52.42;96530.91;4907171;29;20036;-64
2021/05/15 07:58:45;;;;;;;5.40;4.80;;;;;;;18.88;52.33;96218.94;4925875;29;20055;-69
2021/05/15 08:01:10;;;;;;;7.05;4.68;;;;;;;21.05;50.58;96508.75;4923744;29;20120;-61
2021/05/15 08:03:36;;;;;;;8.55;4.68;;;;;;;21.14;50.33;96516.50;4921372;29;20051;-62
2021/05/15 08:06:01;;;;;;;8.18;3.63;;;;;;;20.92;50.04;96527.66;4908032;29;20074;-63
2021/05/15 08:08:27;;;;;;;8.93;4.15;;;;;;;21.15;49.69;96516.06;4912348;29;20039;-60
2021/05/15 08:10:53;;;;;;;7.05;4.22;;;;;;;21.48;48.65;96523.00;4909887;29;20048;-60
2021/05/15 08:13:18;;;;;;;6.70;3.72;;;;;;;21.20;49.53;96521.13;4926161;29;20493;-59
2021/05/15 08:15:44;;;;;;;4.97;4.25;;;;;;;20.93;50.25;96490.59;4927133;29;20045;-59
2021/05/15 08:18:10;;;;;;;7.72;3.85;;;;;;;19.97;51.24;96473.44;4921818;29;20067;-59
2021/05/15 08:20:36;;;;;;;7.88;5.00;;;;;;;20.66;50.79;96489.50;4923066;29;20035;-67
2021/05/15 08:23:01;;;;;;;10.95;8.32;;;;;;;19.63;50.65;96374.88;4908147;29;20074;-67
2021/05/15 08:25:27;;;;;;;13.02;10.15;;;;;;;21.26;49.92;96530.59;4920512;29;20048;-63
2021/05/15 08:27:56;;;;;;;27.63;19.35;;;;;;;21.03;50.16;96516.88;4924276;29;20119;-66
2021/05/15 08:30:22;;;;;;;66.95;57.83;;;;;;;21.20;50.35;96515.50;4924655;29;20554;-62
2021/05/15 08:32:52;;;;;;;28.60;25.77;;;;;;;21.39;48.70;96522.91;4927072;29;20039;-63
2021/05/15 08:35:19;;;;;;;64.97;53.47;;;;;;;20.86;49.15;96512.56;4900071;29;20051;-62
2021/05/15 08:37:45;;;;;;;32.08;29.15;;;;;;;20.75;48.83;96495.22;4889138;29;20045;-61
2021/05/15 08:40:12;;;;;;;11.13;9.95;;;;;;;21.23;48.00;96514.59;4888530;29;20508;-61
2021/05/15 08:42:39;;;;;;;8.98;8.27;;;;;;;21.69;47.51;96508.16;4889062;29;20036;-62
2021/05/15 08:45:07;;;;;;;7.53;4.53;;;;;;;21.51;47.34;96439.56;4921582;29;20767;-62
2021/05/15 08:47:35;;;;;;;6.30;5.80;;;;;;;22.67;47.27;96497.34;4923251;29;20499;-65
2021/05/15 08:50:07;;;;;;;4.80;4.10;;;;;;;21.70;46.37;96458.22;4923784;29;20047;-61
2021/05/15 08:52:33;;;;;;;5.32;4.85;;;;;;;22.23;46.29;96493.75;4925367;29;20031;-60
2021/05/15 08:55:00;;;;;;;12.35;8.13;;;;;;;22.07;47.15;96455.25;4915326;29;20040;-62
2021/05/15 08:57:26;;;;;;;20.95;8.13;;;;;;;21.41;48.43;96413.34;4889747;29;20485;-60
2021/05/15 08:59:51;;;;;;;8.90;6.13;;;;;;;21.25;48.49;96393.00;4906049;29;20154;-64
2021/05/15 09:02:18;;;;;;;10.70;6.30;;;;;;;21.99;48.72;96499.06;4909722;29;20038;-61
2021/05/15 09:04:43;;;;;;;18.10;12.55;;;;;;;21.76;49.18;96485.41;4912497;29;20050;-60
2021/05/15 09:07:10;;;;;;;9.60;4.22;;;;;;;22.06;49.52;96481.88;4906605;29;20044;-66
2021/05/15 09:09:36;;;;;;;5.03;4.47;;;;;;;22.29;48.96;96489.88;4913622;29;20042;-61
2021/05/15 09:12:03;;;;;;;8.00;5.57;;;;;;;22.13;48.98;96453.41;4920994;29;20031;-62
2021/05/15 09:14:28;;;;;;;7.53;6.00;;;;;;;22.07;49.59;96486.28;4916270;29;20044;-64
2021/05/15 09:16:55;;;;;;;6.65;5.10;;;;;;;22.28;49.27;96476.22;4914679;29;20467;-62
2021/05/15 09:19:23;;;;;;;6.95;4.47;;;;;;;21.71;49.73;96443.66;4911257;29;20490;-59
2021/05/15 09:21:57;;;;;;;9.85;4.00;;;;;;;22.11;49.41;96460.75;4901236;29;20053;-61
2021/05/15 09:24:31;;;;;;;8.50;4.40;;;;;;;21.95;49.73;96391.22;4895636;29;20457;-61
2021/05/15 09:26:59;;;;;;;5.00;4.50;;;;;;;22.31;50.13;96458.38;4905374;29;20047;-62
2021/05/15 09:29:25;;;;;;;5.63;4.82;;;;;;;22.48;50.00;96467.41;4914340;29;20039;-62
2021/05/15 09:31:50;;;;;;;7.93;5.03;;;;;;;22.31;50.71;96402.72;4906969;29;20048;-62
2021/05/15 09:34:16;;;;;;;6.05;4.13;;;;;;;22.49;51.25;96439.47;4907347;29;20036;-63
2021/05/15 09:36:44;;;;;;;6.00;5.40;;;;;;;22.84;50.95;96433.72;4906943;29;20036;-61
2021/05/15 09:39:15;;;;;;;5.65;4.70;;;;;;;23.12;49.97;96426.88;4905593;29;20111;-62
2021/05/15 09:41:51;;;;;;;8.73;4.47;;;;;;;22.98;50.56;96430.31;4906974;29;20491;-62
2021/05/15 09:44:26;;;;;;;11.95;6.47;;;;;;;23.46;49.17;96423.81;4906399;29;20043;-62
2021/05/15 09:46:53;;;;;;;7.93;5.82;;;;;;;23.42;46.57;96428.84;4907443;29;20514;-62
2021/05/15 09:49:25;;;;;;;7.93;4.43;;;;;;;22.17;41.46;96114.69;4906102;29;20040;-62
2021/05/15 09:52:02;;;;;;;15.37;11.70;;;;;;;24.03;39.88;96414.41;4905322;29;20457;-63
2021/05/15 09:54:30;;;;;;;11.65;6.28;;;;;;;22.36;41.75;96117.06;4907402;29;20507;-60
2021/05/15 09:57:07;;;;;;;5.10;3.80;;;;;;;24.69;38.98;96416.13;4906662;29;20036;-62
2021/05/15 09:59:37;;;;;;;8.23;3.80;;;;;;;25.03;38.69;96410.00;4907819;29;20066;-62
2021/05/15 10:02:08;;;;;;;6.60;4.28;;;;;;;25.43;37.69;96397.47;4910692;29;20078;-61
2021/05/15 10:04:34;;;;;;;8.52;4.40;;;;;;;25.25;37.64;96376.47;4910715;29;20445;-61
2021/05/15 10:07:01;;;;;;;9.63;6.40;;;;;;;25.68;37.86;96385.59;4910273;29;20039;-62
2021/05/15 10:09:32;;;;;;;5.47;4.03;;;;;;;25.81;37.97;96388.97;4909252;29;20097;-62
2021/05/15 10:11:59;;;;;;;6.55;4.75;;;;;;;25.90;37.29;96364.13;4908541;29;20570;-62
2021/05/15 10:14:25;;;;;;;8.27;4.65;;;;;;;26.02;37.62;96388.63;4910622;29;20111;-62
2021/05/15 10:16:51;;;;;;;5.45;4.90;;;;;;;25.14;37.99;96330.88;4910291;29;20083;-63
2021/05/15 10:19:17;;;;;;;7.57;4.80;;;;;;;23.25;37.59;95958.41;4910758;29;20067;-63
2021/05/15 10:21:44;;;;;;;5.68;4.63;;;;;;;26.26;37.19;96380.03;4909910;29;20524;-62
2021/05/15 10:24:18;;;;;;;15.30;9.20;;;;;;;26.37;37.39;96368.84;4908764;29;20040;-62
2021/05/15 10:26:46;;;;;;;7.90;5.53;;;;;;;26.23;36.71;96389.53;4908711;29;20043;-62
2021/05/15 10:29:11;;;;;;;5.60;4.00;;;;;;;26.10;36.54;96372.78;4910447;29;20112;-62
2021/05/15 10:31:39;;;;;;;5.05;4.60;;;;;;;25.76;37.26;96290.31;4910096;29;20044;-62
2021/05/15 10:34:06;;;;;;;5.93;4.35;;;;;;;26.61;36.03;96383.72;4908941;29;20046;-63
2021/05/15 10:36:43;;;;;;;7.75;5.43;;;;;;;26.94;35.89;96367.22;4909913;29;20040;-61
2021/05/15 10:39:08;;;;;;;12.25;5.90;;;;;;;26.67;36.37;96337.09;4909998;29;20048;-62
2021/05/15 10:41:44;;;;;;;4.80;4.40;;;;;;;27.09;36.50;96367.16;4910304;29;20032;-61
2021/05/15 10:44:12;;;;;;;9.32;5.25;;;;;;;27.26;35.49;96354.78;4908894;29;20040;-62
2021/05/15 10:46:44;;;;;;;9.63;4.88;;;;;;;26.33;36.96;96363.38;4910368;29;20036;-61
2021/05/15 10:49:21;;;;;;;6.97;5.30;;;;;;;26.41;36.92;96360.94;4910688;29;20048;-61
2021/05/15 10:51:50;;;;;;;5.22;4.63;;;;;;;26.20;37.32;96359.25;4908516;29;20582;-61
2021/05/15 10:54:28;;;;;;;7.07;5.25;;;;;;;26.28;37.20;96360.44;4909955;29;20241;-62
2021/05/15 10:57:03;;;;;;;7.30;4.88;;;;;;;25.34;38.00;96304.72;4910031;29;20411;-61
2021/05/15 10:59:29;;;;;;;8.90;4.88;;;;;;;25.58;38.39;96358.56;4910095;29;20064;-61
2021/05/15 11:01:59;;;;;;;15.88;8.00;;;;;;;25.82;38.32;96356.47;4909361;29;20078;-61
2021/05/15 11:04:32;;;;;;;16.73;6.18;;;;;;;25.81;38.53;96349.25;4908396;29;20103;-62
2021/05/15 11:07:13;;;;;;;9.45;4.72;;;;;;;25.46;37.85;96349.09;4909607;29;20119;-61
2021/05/15 11:09:50;;;;;;;8.90;4.70;;;;;;;25.50;38.22;96351.75;4908281;29;20050;-64
2021/05/15 11:12:17;;;;;;;6.28;3.92;;;;;;;25.16;38.71;96300.00;4908194;29;20040;-63
2021/05/15 11:14:44;;;;;;;8.32;4.57;;;;;;;25.91;38.25;96342.22;4908218;29;20043;-61
2021/05/15 11:17:15;;;;;;;12.07;4.60;;;;;;;26.03;37.99;96344.00;4907604;29;20122;-62
2021/05/15 11:20:07;;;;;;;6.78;4.93;;;;;;;26.82;37.19;96339.91;4907835;29;20044;-62
2021/05/15 11:22:53;;;;;;;7.10;5.40;;;;;;;26.39;37.23;96340.75;4907115;29;20435;-62
2021/05/15 11:25:29;;;;;;;11.65;6.82;;;;;;;25.94;37.97;96329.88;4907222;29;20428;-62
2021/05/15 11:28:02;;;;;;;13.23;5.43;;;;;;;25.85;37.83;96332.78;4909607;29;20051;-61
2021/05/15 11:30:31;;;;;;;8.13;4.68;;;;;;;25.84;37.92;96320.69;4909181;29;20424;-63
2021/05/15 11:33:02;;;;;;;9.85;5.15;;;;;;;25.86;38.16;96328.69;4907875;29;20047;-63